Main page
METAR-TAF:

METAR-TAF

Airports :

Monticello Regional Airport

Monticello, Iowa, United States

latitude: 42-14N, longitude: 091-10W, elevation: 850 ft

Current weather observation

The report was made 29 minutes ago, at 14:55 UTC
Wind 12 mph from the West
Temperature 30°F
Humidity 69%
Pressure 29.79 in. Hg
Visibility: 10 miles
Clear sky

METAR: KMXO 211455Z AUTO 26010KT 10SM CLR M01/M06 A2979 RMK AO2

Time: 09:24 (15:24 UTC)


TAF: missing

Weather observations and forecasts of more than 4000 airports (METAR and TAF reports).

The available stations are represented by yellow and red dots on the map.

Hover mouse over dot to see the name of the station.

Then click to see weather observations and forecasts.

To change the map : click on the green buttons with a black cross to zoom in, on the green button with a dash to zoom out, or on the green arrows for adjacent maps.


METAR-TAF: